Time;durP1;ratioP1;P1;durP2;ratioP2;P2;SDS_P1;SDS_P2;PMS_P1;PMS_P2;Temp;Humidity;BMP_temperature;BMP_pressure;BME280_temperature;BME280_humidity;BME280_pressure;Samples;Min_cycle;Max_cycle;Signal;HPM_P1;HPM_P2
2022/06/14 00:01:21;;;;;;;4.23;2.10;;;;;;;;;;4979248;28;20452;-84
2022/06/14 00:03:48;;;;;;;3.20;2.33;;;;;;;;;;4981352;28;20405;-83
2022/06/14 00:06:19;;;;;;;4.43;2.23;;;;;;;;;;4981530;28;20413;-84
2022/06/14 00:08:45;;;;;;;4.53;2.40;;;;;;;;;;4980667;28;20402;-84
2022/06/14 00:11:19;;;;;;;4.63;1.93;;;;;;;;;;4980738;28;20972;-84
2022/06/14 00:13:45;;;;;;;5.93;2.40;;;;;;;;;;4982070;28;20438;-84
2022/06/14 00:16:11;;;;;;;3.53;2.60;;;;;;;;;;4986818;28;20456;-84
2022/06/14 00:18:37;;;;;;;3.63;2.00;;;;;;;;;;4981745;28;20411;-84
2022/06/14 00:21:03;;;;;;;4.47;2.40;;;;;;;;;;4982874;28;20428;-84
2022/06/14 00:23:29;;;;;;;7.30;2.50;;;;;;;;;;4982648;28;20418;-85
2022/06/14 00:25:57;;;;;;;5.33;2.27;;;;;;;;;;4981169;28;20409;-85
2022/06/14 00:28:24;;;;;;;5.67;2.50;;;;;;;;;;4981214;28;20412;-85
2022/06/14 00:30:52;;;;;;;4.73;2.30;;;;;;;;;;4964422;28;20464;-85
2022/06/14 00:33:19;;;;;;;4.37;2.37;;;;;;;;;;4981751;28;20429;-85
2022/06/14 00:35:45;;;;;;;3.70;2.43;;;;;;;;;;4982043;28;20417;-82
2022/06/14 00:38:12;;;;;;;6.20;2.60;;;;;;;;;;4983240;28;20409;-83
2022/06/14 00:40:38;;;;;;;5.00;2.97;;;;;;;;;;4963987;28;20865;-84
2022/06/14 00:43:12;;;;;;;4.77;2.13;;;;;;;;;;4963615;28;20831;-83
2022/06/14 00:45:38;;;;;;;6.53;2.37;;;;;;;;;;4981746;28;20426;-83
2022/06/14 00:48:06;;;;;;;5.93;2.33;;;;;;;;;;4981360;28;20760;-83
2022/06/14 00:50:34;;;;;;;3.57;2.20;;;;;;;;;;4981628;28;20472;-84
2022/06/14 00:53:04;;;;;;;5.60;2.27;;;;;;;;;;4982102;28;20509;-83
2022/06/14 00:55:32;;;;;;;4.70;3.13;;;;;;;;;;4976814;28;20436;-83
2022/06/14 00:58:18;;;;;;;6.63;2.00;;;;;;;;;;4982086;28;20519;-84
2022/06/14 01:00:59;;;;;;;3.30;2.50;;;;;;;;;;4974431;28;20437;-83
2022/06/14 01:03:27;;;;;;;6.83;2.60;;;;;;;;;;4973960;28;20801;-83
2022/06/14 01:06:05;;;;;;;5.63;2.40;;;;;;;;;;4973742;28;20415;-83
2022/06/14 01:08:32;;;;;;;4.63;2.40;;;;;;;;;;4973674;28;20894;-82
2022/06/14 01:10:58;;;;;;;4.80;2.60;;;;;;;;;;4973771;28;20639;-82
2022/06/14 01:13:24;;;;;;;3.63;2.63;;;;;;;;;;4955956;28;20423;-83
2022/06/14 01:16:10;;;;;;;5.10;3.30;;;;;;;;;;4976559;28;20496;-84
2022/06/14 01:18:36;;;;;;;6.23;3.83;;;;;;;;;;4980524;28;20920;-84
2022/06/14 01:21:02;;;;;;;11.33;4.70;;;;;;;;;;4982282;28;20438;-84
2022/06/14 01:23:28;;;;;;;7.40;3.80;;;;;;;;;;4982682;28;20405;-83
2022/06/14 01:25:57;;;;;;;5.27;3.57;;;;;;;;;;4982687;28;20415;-84
2022/06/14 01:28:25;;;;;;;6.60;3.53;;;;;;;;;;4956828;28;20405;-82
2022/06/14 01:30:53;;;;;;;6.20;3.93;;;;;;;;;;4975552;28;20843;-83
2022/06/14 01:33:21;;;;;;;7.70;3.90;;;;;;;;;;4976764;28;20440;-82
2022/06/14 01:35:51;;;;;;;8.10;3.47;;;;;;;;;;4976748;28;20401;-83
2022/06/14 01:38:28;;;;;;;6.80;3.70;;;;;;;;;;4976793;28;20404;-83
2022/06/14 01:41:06;;;;;;;8.03;4.90;;;;;;;;;;4959432;28;20444;-82
2022/06/14 01:43:36;;;;;;;8.90;4.77;;;;;;;;;;4977319;28;20413;-82
2022/06/14 01:46:11;;;;;;;7.37;5.17;;;;;;;;;;4959709;28;20409;-82
2022/06/14 01:48:50;;;;;;;8.30;4.00;;;;;;;;;;4977693;28;20431;-83
2022/06/14 01:54:10;;;;;;;7.20;4.83;;;;;;;;;;4977422;28;20397;-82
2022/06/14 01:56:48;;;;;;;6.33;4.33;;;;;;;;;;4977562;28;20480;-82
2022/06/14 01:59:41;;;;;;;7.00;4.63;;;;;;;;;;4977243;28;20877;-83
2022/06/14 02:02:22;;;;;;;9.20;4.40;;;;;;;;;;4977416;28;20398;-83
2022/06/14 02:04:57;;;;;;;8.97;4.47;;;;;;;;;;4977364;28;20421;-83
2022/06/14 02:07:41;;;;;;;5.10;4.07;;;;;;;;;;4977424;28;20913;-83
2022/06/14 02:10:19;;;;;;;8.43;3.53;;;;;;;;;;4977563;28;20480;-83
2022/06/14 02:12:51;;;;;;;8.27;4.80;;;;;;;;;;4985026;28;20386;-84
2022/06/14 02:15:47;;;;;;;7.67;3.70;;;;;;;;;;4984687;28;20781;-83
2022/06/14 02:18:15;;;;;;;6.30;4.50;;;;;;;;;;4968782;28;20516;-84
2022/06/14 02:20:46;;;;;;;9.57;4.50;;;;;;;;;;4985290;28;20433;-84
2022/06/14 02:23:12;;;;;;;6.93;4.00;;;;;;;;;;4985763;28;20492;-82
2022/06/14 02:25:45;;;;;;;6.60;4.13;;;;;;;;;;4967773;28;20426;-83
2022/06/14 02:28:18;;;;;;;6.80;4.27;;;;;;;;;;4984012;28;20409;-83
2022/06/14 02:30:55;;;;;;;12.40;5.23;;;;;;;;;;4966939;28;20471;-83
2022/06/14 02:33:30;;;;;;;10.80;4.37;;;;;;;;;;4983764;28;20886;-83
2022/06/14 02:36:18;;;;;;;7.17;4.73;;;;;;;;;;4984087;28;20984;-84
2022/06/14 02:38:47;;;;;;;5.40;3.90;;;;;;;;;;4984090;28;20401;-84
2022/06/14 02:41:13;;;;;;;8.83;5.27;;;;;;;;;;4983122;28;20441;-84
2022/06/14 02:43:43;;;;;;;11.93;5.27;;;;;;;;;;4984179;28;20410;-84
2022/06/14 02:46:12;;;;;;;6.80;4.50;;;;;;;;;;4983471;28;20553;-83
2022/06/14 02:48:48;;;;;;;5.77;4.70;;;;;;;;;;4982683;28;20905;-83
2022/06/14 02:51:17;;;;;;;5.40;4.67;;;;;;;;;;4984220;28;20507;-83
2022/06/14 02:53:46;;;;;;;7.60;4.63;;;;;;;;;;4981544;28;20789;-84
2022/06/14 02:56:22;;;;;;;7.03;4.67;;;;;;;;;;4983529;28;20447;-84
2022/06/14 02:58:55;;;;;;;10.00;5.70;;;;;;;;;;4980041;28;20408;-83
2022/06/14 03:01:28;;;;;;;8.40;5.10;;;;;;;;;;4975846;28;20443;-82
2022/06/14 03:03:59;;;;;;;16.07;4.83;;;;;;;;;;4975288;28;20405;-82
2022/06/14 03:06:33;;;;;;;7.67;4.57;;;;;;;;;;4976591;28;20444;-83
2022/06/14 03:09:16;;;;;;;5.83;4.10;;;;;;;;;;4977028;28;20893;-83
2022/06/14 03:11:51;;;;;;;5.83;4.70;;;;;;;;;;4977067;28;20527;-82
2022/06/14 03:14:17;;;;;;;8.13;4.30;;;;;;;;;;4960764;28;20409;-83
2022/06/14 03:16:43;;;;;;;9.20;4.47;;;;;;;;;;4978393;28;20417;-82
2022/06/14 03:19:28;;;;;;;7.97;3.70;;;;;;;;;;4979001;28;20405;-83
2022/06/14 03:21:57;;;;;;;6.80;3.90;;;;;;;;;;4978281;28;20424;-83
2022/06/14 03:24:23;;;;;;;4.50;3.90;;;;;;;;;;4978904;28;20466;-84
2022/06/14 03:27:00;;;;;;;6.10;4.33;;;;;;;;;;4978942;28;20569;-83
2022/06/14 03:29:35;;;;;;;7.13;3.87;;;;;;;;;;4979608;28;20421;-83
2022/06/14 03:32:12;;;;;;;4.83;4.30;;;;;;;;;;4962067;28;20457;-83
2022/06/14 03:35:00;;;;;;;5.83;4.00;;;;;;;;;;4979837;28;20394;-84
2022/06/14 03:37:27;;;;;;;9.37;4.10;;;;;;;;;;4979717;28;20479;-83
2022/06/14 03:39:55;;;;;;;5.00;4.50;;;;;;;;;;4979280;28;20459;-83
2022/06/14 03:42:22;;;;;;;5.00;4.00;;;;;;;;;;4978065;28;20859;-83
2022/06/14 03:44:49;;;;;;;6.53;5.23;;;;;;;;;;4961969;28;20436;-83
2022/06/14 03:47:23;;;;;;;6.27;4.10;;;;;;;;;;4980233;28;20409;-83
2022/06/14 03:49:51;;;;;;;5.47;4.47;;;;;;;;;;4980068;28;20557;-83
2022/06/14 03:52:24;;;;;;;6.80;4.03;;;;;;;;;;4962159;28;20475;-83
2022/06/14 03:54:50;;;;;;;6.47;4.30;;;;;;;;;;4980621;28;20471;-84
2022/06/14 03:57:24;;;;;;;6.67;3.80;;;;;;;;;;4981524;28;20500;-83
2022/06/14 03:59:57;;;;;;;6.50;4.63;;;;;;;;;;4980989;28;20483;-83
2022/06/14 04:02:52;;;;;;;12.00;4.83;;;;;;;;;;4966053;28;20471;-84
2022/06/14 04:05:13;;;;;;;6.93;4.20;;;;;;;;;;4982220;28;20417;-83
2022/06/14 04:07:45;;;;;;;7.77;4.70;;;;;;;;;;4981730;28;20984;-84
2022/06/14 04:10:11;;;;;;;5.40;4.20;;;;;;;;;;4981934;28;20480;-83
2022/06/14 04:12:56;;;;;;;5.70;3.80;;;;;;;;;;4981750;28;20396;-84
2022/06/14 04:15:45;;;;;;;5.23;4.43;;;;;;;;;;4981937;28;20456;-83
2022/06/14 04:21:02;;;;;;;6.00;4.00;;;;;;;;;;5012914;28;20415;-87
2022/06/14 04:23:36;;;;;;;7.77;4.70;;;;;;;;;;5003902;28;20459;-87
2022/06/14 04:26:07;;;;;;;6.03;4.40;;;;;;;;;;5003125;28;20376;-86
2022/06/14 04:28:50;;;;;;;6.30;5.37;;;;;;;;;;5003228;28;20426;-86
2022/06/14 04:31:20;;;;;;;6.07;3.90;;;;;;;;;;5004267;28;20443;-87
2022/06/14 04:33:50;;;;;;;5.33;3.83;;;;;;;;;;5003567;28;20404;-87
2022/06/14 04:36:24;;;;;;;9.30;4.50;;;;;;;;;;4986704;28;20485;-87
2022/06/14 04:39:00;;;;;;;5.30;3.97;;;;;;;;;;4986006;28;20442;-88
2022/06/14 04:41:29;;;;;;;5.50;4.57;;;;;;;;;;4986212;28;20416;-87
2022/06/14 04:44:33;;;;;;;6.13;4.47;;;;;;;;;;5003049;28;20413;-87
2022/06/14 04:47:06;;;;;;;5.87;3.90;;;;;;;;;;4908712;29;20430;-87
2022/06/14 04:49:37;;;;;;;5.80;4.10;;;;;;;;;;4908698;29;20424;-87
2022/06/14 04:52:15;;;;;;;7.77;4.13;;;;;;;;;;4968291;28;20468;-87
2022/06/14 04:54:45;;;;;;;7.63;3.90;;;;;;;;;;5004419;28;20531;-87
2022/06/14 04:57:16;;;;;;;5.50;4.07;;;;;;;;;;4986092;28;20440;-87
2022/06/14 04:59:45;;;;;;;7.57;4.90;;;;;;;;;;4985945;28;20756;-87
2022/06/14 05:02:25;;;;;;;9.40;7.90;;;;;;;;;;5003441;28;20416;-87
2022/06/14 05:04:54;;;;;;;5.30;3.87;;;;;;;;;;5021150;28;20422;-88
2022/06/14 05:07:34;;;;;;;5.57;4.30;;;;;;;;;;5032354;28;20427;-87
2022/06/14 05:10:02;;;;;;;4.60;3.60;;;;;;;;;;5008704;28;20418;-90
2022/06/14 05:12:47;;;;;;;7.30;3.83;;;;;;;;;;5010384;28;20407;-86
2022/06/14 05:15:23;;;;;;;7.80;4.00;;;;;;;;;;5028719;28;20412;-85
2022/06/14 05:17:52;;;;;;;8.33;3.90;;;;;;;;;;5022314;28;20439;-86
2022/06/14 05:20:25;;;;;;;7.07;3.87;;;;;;;;;;5004693;28;20430;-87
2022/06/14 05:22:55;;;;;;;6.93;3.73;;;;;;;;;;5022930;28;20423;-88
2022/06/14 05:25:21;;;;;;;8.63;4.73;;;;;;;;;;5022200;28;20868;-88
2022/06/14 05:27:47;;;;;;;8.10;3.67;;;;;;;;;;5004150;28;20443;-86
2022/06/14 05:30:32;;;;;;;6.20;4.43;;;;;;;;;;5021582;28;20439;-88
2022/06/14 05:33:21;;;;;;;10.50;4.93;;;;;;;;;;5036299;28;20434;-87
2022/06/14 05:36:00;;;;;;;5.77;2.90;;;;;;;;;;5027999;28;20662;-87
2022/06/14 05:38:28;;;;;;;5.13;3.40;;;;;;;;;;5009352;28;20581;-86
2022/06/14 05:41:02;;;;;;;5.97;2.80;;;;;;;;;;5028171;28;20429;-86
2022/06/14 05:43:29;;;;;;;7.27;3.43;;;;;;;;;;5025188;28;20418;-88
2022/06/14 05:45:58;;;;;;;6.50;3.33;;;;;;;;;;5004232;28;20423;-87
2022/06/14 05:48:32;;;;;;;7.57;4.23;;;;;;;;;;5020844;28;20454;-86
2022/06/14 05:51:00;;;;;;;5.43;3.63;;;;;;;;;;5004218;28;20497;-87
2022/06/14 05:53:43;;;;;;;8.30;2.87;;;;;;;;;;5030376;28;20408;-87
2022/06/14 05:56:13;;;;;;;7.63;3.47;;;;;;;;;;5038712;28;20392;-87
2022/06/14 05:58:42;;;;;;;4.30;3.20;;;;;;;;;;5027088;28;20442;-87
2022/06/14 06:01:11;;;;;;;4.87;3.00;;;;;;;;;;5021361;28;20827;-87
2022/06/14 06:03:40;;;;;;;8.53;2.97;;;;;;;;;;5004993;28;20415;-87
2022/06/14 06:06:06;;;;;;;5.30;3.20;;;;;;;;;;5020887;28;20418;-87
2022/06/14 06:08:32;;;;;;;5.93;2.83;;;;;;;;;;5001925;28;20435;-87
2022/06/14 06:11:08;;;;;;;4.10;2.87;;;;;;;;;;5018996;28;20454;-88
2022/06/14 06:13:39;;;;;;;5.33;2.90;;;;;;;;;;5018603;28;20410;-87
2022/06/14 06:16:09;;;;;;;5.00;4.00;;;;;;;;;;5018354;28;20413;-87
2022/06/14 06:18:44;;;;;;;6.50;2.97;;;;;;;;;;4983424;28;20448;-87
2022/06/14 06:21:25;;;;;;;9.37;3.90;;;;;;;;;;4983185;28;20768;-87
2022/06/14 06:23:51;;;;;;;8.77;3.60;;;;;;;;;;4999598;28;20439;-87
2022/06/14 06:26:19;;;;;;;5.33;3.20;;;;;;;;;;5015102;28;20439;-87
2022/06/14 06:28:54;;;;;;;7.97;3.40;;;;;;;;;;5003365;28;20455;-87
2022/06/14 06:31:26;;;;;;;4.67;3.27;;;;;;;;;;5021025;28;20434;-86
2022/06/14 06:33:53;;;;;;;5.27;2.97;;;;;;;;;;5013500;28;20932;-86
2022/06/14 06:36:22;;;;;;;8.60;3.33;;;;;;;;;;4983533;28;20520;-88
2022/06/14 06:38:56;;;;;;;8.60;4.10;;;;;;;;;;5004157;28;20531;-87
2022/06/14 06:44:17;;;;;;;5.43;2.80;;;;;;;;;;5020447;28;20395;-87
2022/06/14 06:46:46;;;;;;;5.83;2.83;;;;;;;;;;5020549;28;20427;-87
2022/06/14 06:49:13;;;;;;;4.37;3.10;;;;;;;;;;5007929;28;20416;-86
2022/06/14 06:52:00;;;;;;;6.87;3.50;;;;;;;;;;5030706;28;20443;-87
2022/06/14 06:54:39;;;;;;;4.53;2.97;;;;;;;;;;5031042;28;20384;-86
2022/06/14 06:57:06;;;;;;;5.93;3.40;;;;;;;;;;5032665;28;20450;-85
2022/06/14 06:59:35;;;;;;;5.83;2.77;;;;;;;;;;5027351;28;20412;-88
2022/06/14 07:02:10;;;;;;;10.23;3.23;;;;;;;;;;5030519;28;20384;-84
2022/06/14 07:07:25;;;;;;;4.90;2.90;;;;;;;;;;5023343;28;20442;-85
2022/06/14 07:10:03;;;;;;;7.10;3.17;;;;;;;;;;5022117;28;20403;-86
2022/06/14 07:12:32;;;;;;;4.93;2.83;;;;;;;;;;5004960;28;20430;-85
2022/06/14 07:15:04;;;;;;;8.03;2.87;;;;;;;;;;5022784;28;20411;-85
2022/06/14 07:17:34;;;;;;;7.33;3.17;;;;;;;;;;5005925;28;20465;-85
2022/06/14 07:20:26;;;;;;;4.77;2.70;;;;;;;;;;5012690;28;20473;-87
2022/06/14 07:22:58;;;;;;;6.93;3.40;;;;;;;;;;5020850;28;20498;-84
2022/06/14 07:25:24;;;;;;;7.70;3.00;;;;;;;;;;5005919;28;20512;-84
2022/06/14 07:28:06;;;;;;;4.73;2.67;;;;;;;;;;5014128;28;20482;-84
2022/06/14 07:30:38;;;;;;;5.23;2.47;;;;;;;;;;5004114;28;20460;-86
2022/06/14 07:33:04;;;;;;;5.83;2.60;;;;;;;;;;4988427;28;20415;-84
2022/06/14 07:35:32;;;;;;;7.87;2.70;;;;;;;;;;4988952;28;20412;-86
2022/06/14 07:38:10;;;;;;;7.10;3.03;;;;;;;;;;4987299;28;20869;-85
2022/06/14 07:40:50;;;;;;;5.77;2.47;;;;;;;;;;5015615;28;20756;-85
2022/06/14 07:43:26;;;;;;;5.10;2.73;;;;;;;;;;5005589;28;20423;-85
2022/06/14 07:45:52;;;;;;;7.73;2.90;;;;;;;;;;5005886;28;20478;-85
2022/06/14 07:48:18;;;;;;;9.00;2.80;;;;;;;;;;5024258;28;20423;-85
2022/06/14 07:50:53;;;;;;;6.57;3.37;;;;;;;;;;5005254;28;20539;-84
2022/06/14 07:53:25;;;;;;;4.13;2.53;;;;;;;;;;5024088;28;20422;-85
2022/06/14 07:55:54;;;;;;;5.50;3.27;;;;;;;;;;5025218;28;20422;-86
2022/06/14 07:58:30;;;;;;;5.40;3.20;;;;;;;;;;5025700;28;20451;-86
2022/06/14 08:01:08;;;;;;;5.50;2.33;;;;;;;;;;5005337;28;20404;-86
2022/06/14 08:03:37;;;;;;;7.93;3.17;;;;;;;;;;5006706;28;20411;-85
2022/06/14 08:06:16;;;;;;;6.27;3.27;;;;;;;;;;5006247;28;20506;-86
2022/06/14 08:08:42;;;;;;;10.10;2.90;;;;;;;;;;5021582;28;20443;-85
2022/06/14 08:11:15;;;;;;;4.60;3.10;;;;;;;;;;5024344;28;21022;-85
2022/06/14 08:13:45;;;;;;;9.17;2.93;;;;;;;;;;5024516;28;20511;-86
2022/06/14 08:16:13;;;;;;;6.30;2.77;;;;;;;;;;5025156;28;20411;-86
2022/06/14 08:18:47;;;;;;;6.97;3.13;;;;;;;;;;5006825;28;20458;-85
2022/06/14 08:21:19;;;;;;;7.90;2.70;;;;;;;;;;5024815;28;20404;-83
2022/06/14 08:23:47;;;;;;;5.93;3.07;;;;;;;;;;5019762;28;20454;-84
2022/06/14 08:26:37;;;;;;;8.50;2.53;;;;;;;;;;5003470;28;20491;-84
2022/06/14 08:29:10;;;;;;;4.60;2.67;;;;;;;;;;5009884;28;20494;-82
2022/06/14 08:31:39;;;;;;;4.23;2.70;;;;;;;;;;5002424;28;20463;-84
2022/06/14 08:34:08;;;;;;;8.67;3.10;;;;;;;;;;5002453;28;20800;-85
2022/06/14 08:36:43;;;;;;;3.37;2.37;;;;;;;;;;5002211;28;20419;-85
2022/06/14 08:39:13;;;;;;;6.13;2.33;;;;;;;;;;5002349;28;20461;-84
2022/06/14 08:41:39;;;;;;;7.20;3.90;;;;;;;;;;5001576;28;20412;-85
2022/06/14 08:44:21;;;;;;;5.70;2.90;;;;;;;;;;5002055;28;20423;-84
2022/06/14 08:47:16;;;;;;;5.57;2.70;;;;;;;;;;5009273;28;20426;-86
2022/06/14 08:50:11;;;;;;;5.83;2.93;;;;;;;;;;5004768;28;20842;-86
2022/06/14 08:52:43;;;;;;;3.67;2.60;;;;;;;;;;4995937;28;20517;-85
2022/06/14 08:55:12;;;;;;;6.43;2.80;;;;;;;;;;5021110;28;20440;-85
2022/06/14 08:57:57;;;;;;;4.93;3.00;;;;;;;;;;5020602;28;20439;-86
2022/06/14 09:00:32;;;;;;;6.57;2.70;;;;;;;;;;5020285;28;20410;-84
2022/06/14 09:03:17;;;;;;;8.50;2.87;;;;;;;;;;5000628;28;20903;-84
2022/06/14 09:05:43;;;;;;;4.57;2.43;;;;;;;;;;5018889;28;20403;-84
2022/06/14 09:08:36;;;;;;;5.80;2.70;;;;;;;;;;5000669;28;20459;-85
2022/06/14 09:11:05;;;;;;;8.23;2.77;;;;;;;;;;5001150;28;20188;-85
2022/06/14 09:13:34;;;;;;;5.43;3.50;;;;;;;;;;5018066;28;20418;-84
2022/06/14 09:16:08;;;;;;;8.27;3.53;;;;;;;;;;5018512;28;20399;-83
2022/06/14 09:18:53;;;;;;;5.20;3.10;;;;;;;;;;5001482;28;20512;-85
2022/06/14 09:21:31;;;;;;;4.40;2.70;;;;;;;;;;5002009;28;20490;-85
2022/06/14 09:24:16;;;;;;;7.57;2.70;;;;;;;;;;5001721;28;20408;-84
2022/06/14 09:26:42;;;;;;;6.00;2.70;;;;;;;;;;5002539;28;20422;-85
2022/06/14 09:29:26;;;;;;;4.40;2.60;;;;;;;;;;5003574;28;20415;-85
2022/06/14 09:31:59;;;;;;;4.03;2.63;;;;;;;;;;5021032;28;20462;-86
2022/06/14 09:34:43;;;;;;;6.70;3.00;;;;;;;;;;5001094;28;20403;-85
2022/06/14 09:37:20;;;;;;;5.10;2.73;;;;;;;;;;5024137;28;20502;-83
2022/06/14 09:39:46;;;;;;;6.97;2.83;;;;;;;;;;5018814;28;20441;-84
2022/06/14 09:42:15;;;;;;;8.83;2.70;;;;;;;;;;4999855;28;20890;-84
2022/06/14 09:45:00;;;;;;;7.70;3.50;;;;;;;;;;5000643;28;20569;-84
2022/06/14 09:47:32;;;;;;;5.80;2.90;;;;;;;;;;5000971;28;20939;-84
2022/06/14 09:50:04;;;;;;;5.13;2.97;;;;;;;;;;5013499;28;20712;-87
2022/06/14 09:52:49;;;;;;;5.63;3.40;;;;;;;;;;5000715;28;20495;-84
2022/06/14 09:55:27;;;;;;;4.80;2.80;;;;;;;;;;5003616;28;20412;-83
2022/06/14 09:58:13;;;;;;;4.40;2.67;;;;;;;;;;4984169;28;20428;-84
2022/06/14 10:00:39;;;;;;;7.70;3.20;;;;;;;;;;5001107;28;20427;-84
2022/06/14 10:03:24;;;;;;;5.20;2.50;;;;;;;;;;5003468;28;20475;-84
2022/06/14 10:06:08;;;;;;;4.60;3.00;;;;;;;;;;5002326;28;20389;-83
2022/06/14 10:08:37;;;;;;;6.83;3.00;;;;;;;;;;4983651;28;20424;-84
2022/06/14 10:11:22;;;;;;;8.50;3.00;;;;;;;;;;5014050;28;20458;-84
2022/06/14 10:13:51;;;;;;;9.93;3.10;;;;;;;;;;4989396;28;20396;-85
2022/06/14 10:16:20;;;;;;;8.90;3.63;;;;;;;;;;5004512;28;20408;-85
2022/06/14 10:18:49;;;;;;;7.63;3.40;;;;;;;;;;5003341;28;20538;-83
2022/06/14 10:21:15;;;;;;;8.80;3.50;;;;;;;;;;5020426;28;20419;-84
2022/06/14 10:24:00;;;;;;;5.87;2.80;;;;;;;;;;5002721;28;20422;-84
2022/06/14 10:29:16;;;;;;;4.00;2.80;;;;;;;;;;5034471;28;20484;-84
2022/06/14 10:31:45;;;;;;;5.60;3.03;;;;;;;;;;5026624;28;20455;-85
2022/06/14 10:34:35;;;;;;;6.47;3.13;;;;;;;;;;5025301;28;20412;-85
2022/06/14 10:37:10;;;;;;;5.80;3.50;;;;;;;;;;4997608;28;20431;-84
2022/06/14 10:39:36;;;;;;;7.60;3.13;;;;;;;;;;5025577;28;20485;-83
2022/06/14 10:42:13;;;;;;;7.10;3.13;;;;;;;;;;5025011;28;20458;-87
2022/06/14 10:44:41;;;;;;;5.93;3.50;;;;;;;;;;5006500;28;20442;-82
2022/06/14 10:47:29;;;;;;;8.57;3.53;;;;;;;;;;4999971;28;20435;-85
2022/06/14 10:50:02;;;;;;;10.33;3.60;;;;;;;;;;5004169;28;20423;-83
2022/06/14 10:52:41;;;;;;;6.40;2.90;;;;;;;;;;5005097;28;20503;-83
2022/06/14 10:55:25;;;;;;;6.40;3.70;;;;;;;;;;5004010;28;20407;-85
2022/06/14 10:57:54;;;;;;;7.30;3.00;;;;;;;;;;5002889;28;20431;-85
2022/06/14 11:00:30;;;;;;;8.87;3.13;;;;;;;;;;5020611;28;20502;-84
2022/06/14 11:03:01;;;;;;;5.87;2.97;;;;;;;;;;5001165;28;20870;-87
2022/06/14 11:05:32;;;;;;;5.00;2.97;;;;;;;;;;5001635;28;20502;-84
2022/06/14 11:08:04;;;;;;;7.30;3.67;;;;;;;;;;5020537;28;20502;-85
2022/06/14 11:10:45;;;;;;;4.30;2.57;;;;;;;;;;5002943;28;20458;-85
2022/06/14 11:13:21;;;;;;;5.13;3.10;;;;;;;;;;5002434;28;20445;-85
2022/06/14 11:18:23;;;;;;;6.37;3.10;;;;;;;;;;5066282;22;20492;-84
2022/06/14 11:20:51;;;;;;;5.60;3.30;;;;;;;;;;5010222;23;20523;-85
2022/06/14 11:23:27;;;;;;;7.07;3.50;;;;;;;;;;4980945;28;20433;-84
2022/06/14 11:25:54;;;;;;;6.13;4.10;;;;;;;;;;4963868;28;20397;-86
2022/06/14 11:28:20;;;;;;;7.30;3.57;;;;;;;;;;4964860;28;20452;-85
2022/06/14 11:30:49;;;;;;;5.93;2.90;;;;;;;;;;4993982;28;20489;-85
2022/06/14 11:33:50;;;;;;;;;;;;;;;;;;;;;
2022/06/14 11:36:44;;;;;;;9.13;3.10;;;;;;;;;;4982580;28;20487;-86
2022/06/14 11:39:17;;;;;;;6.60;3.30;;;;;;;;;;4964051;28;20452;-86
2022/06/14 11:41:53;;;;;;;6.47;3.10;;;;;;;;;;4965403;28;20413;-86
2022/06/14 11:44:29;;;;;;;5.27;3.27;;;;;;;;;;4981371;28;20393;-86
2022/06/14 11:47:18;;;;;;;6.90;3.40;;;;;;;;;;4981630;28;20436;-87
2022/06/14 11:50:14;;;;;;;5.50;3.33;;;;;;;;;;4979738;28;20440;-86
2022/06/14 11:53:22;;;;;;;5.00;2.80;;;;;;;;;;4981105;28;20420;-86
2022/06/14 11:56:43;;;;;;;5.90;3.70;;;;;;;;;;4968594;28;20424;-85
2022/06/14 11:59:11;;;;;;;6.40;3.33;;;;;;;;;;4988373;28;20428;-86
2022/06/14 12:01:42;;;;;;;6.70;2.83;;;;;;;;;;4995530;28;20452;-85
2022/06/14 12:04:21;;;;;;;5.23;2.80;;;;;;;;;;4982120;28;20477;-86
2022/06/14 12:07:05;;;;;;;9.23;3.90;;;;;;;;;;4985012;28;20468;-85
2022/06/14 12:09:46;;;;;;;4.90;3.03;;;;;;;;;;4986005;28;20417;-85
2022/06/14 12:12:15;;;;;;;7.57;3.30;;;;;;;;;;4991696;28;20456;-86
2022/06/14 12:15:02;;;;;;;5.67;3.37;;;;;;;;;;5010697;28;20400;-85
2022/06/14 12:17:37;;;;;;;5.83;3.13;;;;;;;;;;5015096;28;20420;-86
2022/06/14 12:20:05;;;;;;;4.97;2.63;;;;;;;;;;4983996;28;20452;-85
2022/06/14 12:22:37;;;;;;;6.33;3.07;;;;;;;;;;4994405;28;20413;-86
2022/06/14 12:27:54;;;;;;;4.47;2.97;;;;;;;;;;5009580;28;20420;-86
2022/06/14 12:30:21;;;;;;;3.93;3.00;;;;;;;;;;5008248;28;20488;-86
2022/06/14 12:33:09;;;;;;;7.03;3.40;;;;;;;;;;4990851;28;20436;-86
2022/06/14 12:35:41;;;;;;;4.83;3.40;;;;;;;;;;4996540;28;20417;-85
2022/06/14 12:38:18;;;;;;;5.53;2.73;;;;;;;;;;4984791;28;20401;-86
2022/06/14 12:40:47;;;;;;;3.87;3.00;;;;;;;;;;4995990;28;20431;-86
2022/06/14 12:43:15;;;;;;;9.07;3.20;;;;;;;;;;4997092;28;20417;-86
2022/06/14 12:45:51;;;;;;;6.80;3.43;;;;;;;;;;4997290;28;20423;-86
2022/06/14 12:48:29;;;;;;;6.03;3.23;;;;;;;;;;4999109;28;20791;-86
2022/06/14 12:51:15;;;;;;;6.67;2.90;;;;;;;;;;5002334;28;20452;-85
2022/06/14 12:54:00;;;;;;;9.63;3.00;;;;;;;;;;4968426;28;20963;-85
2022/06/14 12:56:43;;;;;;;4.07;2.60;;;;;;;;;;4969831;28;20414;-85
2022/06/14 12:59:10;;;;;;;4.70;2.67;;;;;;;;;;4984541;28;20436;-85
2022/06/14 13:01:45;;;;;;;5.80;2.63;;;;;;;;;;4985846;28;20437;-85
2022/06/14 13:04:14;;;;;;;4.63;2.73;;;;;;;;;;4977196;28;20420;-86
2022/06/14 13:06:40;;;;;;;7.60;2.80;;;;;;;;;;4976716;28;20436;-85
2022/06/14 13:09:14;;;;;;;4.80;2.70;;;;;;;;;;4999279;28;20543;-86
2022/06/14 13:11:59;;;;;;;5.33;2.50;;;;;;;;;;4984851;28;20459;-85
2022/06/14 13:14:30;;;;;;;9.30;3.73;;;;;;;;;;4993588;28;20417;-85
2022/06/14 13:16:59;;;;;;;7.17;3.20;;;;;;;;;;4979257;28;20433;-87
2022/06/14 13:19:28;;;;;;;5.90;3.37;;;;;;;;;;4980255;28;20491;-86
2022/06/14 13:22:17;;;;;;;7.43;3.30;;;;;;;;;;4971556;28;20412;-85
2022/06/14 13:24:53;;;;;;;4.87;2.80;;;;;;;;;;4999691;28;20412;-86
2022/06/14 13:27:48;;;;;;;7.93;2.83;;;;;;;;;;4995593;28;20452;-85
2022/06/14 13:30:20;;;;;;;5.97;2.50;;;;;;;;;;4970706;28;20444;-86
2022/06/14 13:33:05;;;;;;;12.03;3.43;;;;;;;;;;4981796;28;20508;-85
2022/06/14 13:35:40;;;;;;;4.40;2.53;;;;;;;;;;4985422;28;20936;-85
2022/06/14 13:38:09;;;;;;;7.20;3.03;;;;;;;;;;4989038;28;20407;-85
2022/06/14 13:40:53;;;;;;;5.90;2.73;;;;;;;;;;4985745;28;20476;-85
2022/06/14 13:43:34;;;;;;;7.47;3.17;;;;;;;;;;4983863;28;20775;-87
2022/06/14 13:46:00;;;;;;;4.80;2.40;;;;;;;;;;4988079;28;20443;-86
2022/06/14 13:48:45;;;;;;;4.67;2.70;;;;;;;;;;4981209;28;20417;-86
2022/06/14 13:51:14;;;;;;;6.00;2.30;;;;;;;;;;4984611;28;20488;-85
2022/06/14 13:53:48;;;;;;;4.70;2.70;;;;;;;;;;4985953;28;20449;-85
2022/06/14 13:56:26;;;;;;;5.27;2.70;;;;;;;;;;5001559;28;20413;-87
2022/06/14 13:59:11;;;;;;;5.10;2.70;;;;;;;;;;4985941;28;20412;-85
2022/06/14 14:01:53;;;;;;;5.40;2.93;;;;;;;;;;5010887;28;20427;-85
2022/06/14 14:04:19;;;;;;;5.17;2.50;;;;;;;;;;4994276;28;20451;-86
2022/06/14 14:06:56;;;;;;;7.13;2.70;;;;;;;;;;4991276;28;20499;-85
2022/06/14 14:09:43;;;;;;;4.03;2.40;;;;;;;;;;4984728;28;20385;-84
2022/06/14 14:12:23;;;;;;;4.97;2.93;;;;;;;;;;4984115;28;20472;-86
2022/06/14 14:15:01;;;;;;;4.00;2.67;;;;;;;;;;4980680;28;20496;-85
2022/06/14 14:17:37;;;;;;;4.13;2.47;;;;;;;;;;4983808;28;20397;-86
2022/06/14 14:20:06;;;;;;;3.60;2.17;;;;;;;;;;4983055;28;20507;-86
2022/06/14 14:22:36;;;;;;;6.47;2.60;;;;;;;;;;4980943;28;20436;-85
2022/06/14 14:25:18;;;;;;;10.00;2.77;;;;;;;;;;4982593;28;20453;-86
2022/06/14 14:27:54;;;;;;;6.40;2.97;;;;;;;;;;4981218;28;20425;-86
2022/06/14 14:30:23;;;;;;;3.87;2.73;;;;;;;;;;4988381;28;20468;-83
2022/06/14 14:32:56;;;;;;;6.37;2.20;;;;;;;;;;4982668;28;20460;-83
2022/06/14 14:35:27;;;;;;;4.60;2.47;;;;;;;;;;4982704;28;20888;-82
2022/06/14 14:38:20;;;;;;;6.77;2.53;;;;;;;;;;4981984;28;20409;-82
2022/06/14 14:43:37;;;;;;;4.97;3.17;;;;;;;;;;4966547;29;20385;-82
2022/06/14 14:46:10;;;;;;;4.87;2.40;;;;;;;;;;4966973;29;20906;-82
2022/06/14 14:48:36;;;;;;;5.20;2.73;;;;;;;;;;4964846;29;20402;-83
2022/06/14 14:51:11;;;;;;;6.80;2.90;;;;;;;;;;4965954;28;20504;-83
2022/06/14 14:53:43;;;;;;;3.63;2.37;;;;;;;;;;4966511;29;20465;-83
2022/06/14 14:56:25;;;;;;;4.50;2.47;;;;;;;;;;4965093;28;20403;-83
2022/06/14 14:58:52;;;;;;;5.87;2.63;;;;;;;;;;4966865;29;20440;-83
2022/06/14 15:07:11;;;;;;;6.80;2.73;;;;;;;;;;4967676;29;20385;-84
2022/06/14 15:09:42;;;;;;;7.73;2.80;;;;;;;;;;4967482;28;20426;-84
2022/06/14 15:12:25;;;;;;;5.20;2.77;;;;;;;;;;4968619;29;20465;-85
2022/06/14 15:15:27;;;;;;;11.03;2.60;;;;;;;;;;4968971;29;20789;-84
2022/06/14 15:21:06;;;;;;;6.60;3.07;;;;;;;;;;4968563;28;20511;-84
2022/06/14 15:23:40;;;;;;;8.00;2.70;;;;;;;;;;4966058;29;20406;-84
2022/06/14 15:26:12;;;;;;;3.17;2.40;;;;;;;;;;4968134;29;20458;-84
2022/06/14 15:28:43;;;;;;;7.70;2.60;;;;;;;;;;4967439;28;20473;-83
2022/06/14 15:31:29;;;;;;;5.80;2.53;;;;;;;;;;4967497;28;20458;-84
2022/06/14 15:34:02;;;;;;;3.47;2.00;;;;;;;;;;4968402;28;20445;-84
2022/06/14 15:36:32;;;;;;;4.37;2.60;;;;;;;;;;4968229;29;20454;-84
2022/06/14 15:39:24;;;;;;;5.30;2.53;;;;;;;;;;4967343;28;20417;-85
2022/06/14 15:41:53;;;;;;;7.87;2.70;;;;;;;;;;4966653;29;20926;-84
2022/06/14 15:44:24;;;;;;;3.20;2.47;;;;;;;;;;4969077;29;20461;-85
2022/06/14 15:46:56;;;;;;;6.17;3.47;;;;;;;;;;4965993;28;20432;-84
2022/06/14 15:49:25;;;;;;;4.97;2.57;;;;;;;;;;4965726;28;20787;-84
2022/06/14 15:51:51;;;;;;;3.13;2.33;;;;;;;;;;4966836;29;20450;-84
2022/06/14 15:54:31;;;;;;;4.23;2.67;;;;;;;;;;4966421;29;20485;-85
2022/06/14 15:57:03;;;;;;;5.50;2.60;;;;;;;;;;4965243;29;20413;-84